createdAt,value
2022-07-30T00:02:11.019Z,95442.97
2022-07-30T00:04:39.083Z,95445.41
2022-07-30T00:07:08.568Z,95441.94
2022-07-30T00:09:36.562Z,95441.16
2022-07-30T00:12:05.371Z,95438.78
2022-07-30T00:14:34.967Z,95440.94
2022-07-30T00:17:03.892Z,95441.50
2022-07-30T00:19:32.339Z,95446.81
2022-07-30T00:22:00.528Z,95442.06
2022-07-30T00:24:29.913Z,95444.19
2022-07-30T00:26:57.956Z,95440.47
2022-07-30T00:29:26.711Z,95442.09
2022-07-30T00:31:56.584Z,95435.25
2022-07-30T00:34:24.555Z,95441.63
2022-07-30T00:36:52.943Z,95441.09
2022-07-30T00:39:20.922Z,95438.72
2022-07-30T00:41:58.580Z,95432.63
2022-07-30T00:44:26.960Z,95428.69
2022-07-30T00:46:55.168Z,95428.91
2022-07-30T00:49:24.042Z,95428.91
2022-07-30T00:51:52.192Z,95427.31
2022-07-30T00:54:21.249Z,95417.28
2022-07-30T00:56:49.803Z,95412.53
2022-07-30T00:59:19.204Z,95416.25
2022-07-30T01:01:47.234Z,95416.81
2022-07-30T01:04:15.246Z,95412.03
2022-07-30T01:06:43.194Z,95422.66
2022-07-30T01:09:11.172Z,95421.06
2022-07-30T01:11:40.617Z,95426.38
2022-07-30T01:14:10.701Z,95423.22
2022-07-30T01:16:42.865Z,95423.78
2022-07-30T01:19:33.946Z,95429.81
2022-07-30T01:22:08.591Z,95430.66
2022-07-30T01:24:40.255Z,95421.63
2022-07-30T01:27:13.590Z,95424.47
2022-07-30T01:29:45.751Z,95423.91
2022-07-30T01:32:15.737Z,95422.34
2022-07-30T01:34:45.691Z,95425.50
2022-07-30T01:37:16.577Z,95421.22
2022-07-30T01:39:45.212Z,95423.38
2022-07-30T01:42:14.864Z,95412.81
2022-07-30T01:44:44.532Z,95406.47
2022-07-30T01:47:14.446Z,95405.44
2022-07-30T01:49:44.573Z,95402.25
2022-07-30T01:52:13.520Z,95405.47
2022-07-30T01:54:43.735Z,95398.63
2022-07-30T01:57:11.831Z,95393.31
2022-07-30T01:59:41.895Z,95384.84
2022-07-30T02:02:09.905Z,95383.78
2022-07-30T02:04:38.065Z,95384.84
2022-07-30T02:07:11.686Z,95384.34
2022-07-30T02:09:49.276Z,95381.47
2022-07-30T02:12:31.597Z,95382.28
2022-07-30T02:15:15.644Z,95385.75
2022-07-30T02:17:46.868Z,95391.84
2022-07-30T02:20:17.830Z,95390.81
2022-07-30T02:22:48.113Z,95398.50
2022-07-30T02:25:20.157Z,95397.16
2022-07-30T02:27:54.237Z,95397.16
2022-07-30T02:30:28.816Z,95397.72
2022-07-30T02:33:03.053Z,95398.31
2022-07-30T02:35:32.652Z,95404.16
2022-07-30T02:38:03.096Z,95408.38
2022-07-30T02:40:32.219Z,95412.13
2022-07-30T02:43:02.350Z,95404.69
2022-07-30T02:45:32.631Z,95400.50
2022-07-30T02:48:06.695Z,95402.66
2022-07-30T02:50:36.148Z,95403.44
2022-07-30T02:53:08.337Z,95410.84
2022-07-30T02:55:39.399Z,95413.75
2022-07-30T02:58:08.555Z,95420.66
2022-07-30T03:00:39.944Z,95420.16
2022-07-30T03:03:09.933Z,95420.50
2022-07-30T03:05:40.802Z,95422.88
2022-07-30T03:08:09.927Z,95424.41
2022-07-30T03:10:38.803Z,95419.63
2022-07-30T03:13:08.396Z,95416.44
2022-07-30T03:15:43.410Z,95418.03
2022-07-30T03:18:13.236Z,95415.38
2022-07-30T03:20:45.636Z,95416.97
2022-07-30T03:23:16.168Z,95415.38
2022-07-30T03:25:47.442Z,95421.28
2022-07-30T03:28:16.943Z,95428.22
2022-07-30T03:30:46.473Z,95429.78
2022-07-30T03:33:15.844Z,95432.94
2022-07-30T03:35:44.797Z,95428.16
2022-07-30T03:38:14.039Z,95434.75
2022-07-30T03:40:42.816Z,95435.53
2022-07-30T03:43:32.316Z,95436.34
2022-07-30T03:46:03.861Z,95431.84
2022-07-30T03:48:35.609Z,95431.28
2022-07-30T03:51:04.897Z,95432.34
2022-07-30T03:53:33.316Z,95429.66
2022-07-30T03:56:20.158Z,95430.22
2022-07-30T03:59:00.697Z,95418.56
2022-07-30T04:01:31.040Z,95429.44
2022-07-30T04:04:08.538Z,95423.59
2022-07-30T04:06:39.791Z,95427.06
2022-07-30T04:09:09.006Z,95426.53
2022-07-30T04:11:41.091Z,95430.28
2022-07-30T04:14:13.022Z,95425.00
2022-07-30T04:16:49.112Z,95435.31
2022-07-30T04:19:24.477Z,95437.69
2022-07-30T04:21:56.699Z,95438.22
2022-07-30T04:24:28.248Z,95445.09
2022-07-30T04:27:00.650Z,95443.00
2022-07-30T04:29:28.905Z,95453.59
2022-07-30T04:31:59.171Z,95457.81
2022-07-30T04:34:59.435Z,95450.94
2022-07-30T04:38:00.284Z,95454.66
2022-07-30T04:40:30.227Z,95457.28
2022-07-30T04:42:58.519Z,95466.53
2022-07-30T04:45:26.730Z,95469.47
2022-07-30T04:47:59.427Z,95477.91
2022-07-30T04:50:30.071Z,95473.16
2022-07-30T04:52:59.847Z,95475.81
2022-07-30T04:55:31.660Z,95482.16
2022-07-30T04:58:01.937Z,95491.69
2022-07-30T05:00:40.447Z,95488.50
2022-07-30T05:03:14.949Z,95487.44
2022-07-30T05:05:51.117Z,95494.31
2022-07-30T05:08:21.142Z,95495.91
2022-07-30T05:10:50.626Z,95498.03
2022-07-30T05:13:22.463Z,95501.72
2022-07-30T05:15:55.829Z,95498.53
2022-07-30T05:18:28.325Z,95488.47
2022-07-30T05:20:56.307Z,95482.66
2022-07-30T05:23:29.552Z,95489.00
2022-07-30T05:26:05.770Z,95487.97
2022-07-30T05:28:41.625Z,95495.38
2022-07-30T05:31:14.361Z,95491.16
2022-07-30T05:33:51.212Z,95488.78
2022-07-30T05:36:20.584Z,95487.97
2022-07-30T05:38:49.343Z,95485.31
2022-07-30T05:41:35.893Z,95483.72
2022-07-30T05:44:10.930Z,95487.94
2022-07-30T05:46:39.459Z,95492.72
2022-07-30T05:49:09.404Z,95490.59
2022-07-30T05:51:37.482Z,95497.22
2022-07-30T05:54:05.795Z,95492.97
2022-07-30T05:56:56.545Z,95505.13
2022-07-30T05:59:32.762Z,95498.50
2022-07-30T06:02:09.517Z,95510.13
2022-07-30T06:04:59.460Z,95504.56
2022-07-30T06:07:28.265Z,95508.78
2022-07-30T06:10:00.363Z,95503.50
2022-07-30T06:12:29.638Z,95510.63
2022-07-30T06:14:58.469Z,95505.31
2022-07-30T06:17:43.791Z,95511.16
2022-07-30T06:20:27.817Z,95509.59
2022-07-30T06:23:10.687Z,95512.50
2022-07-30T06:25:56.027Z,95504.53
2022-07-30T06:28:39.806Z,95512.72
2022-07-30T06:31:46.079Z,95511.84
2022-07-30T06:34:14.113Z,95509.97
2022-07-30T06:36:45.397Z,95515.75
2022-07-30T06:39:53.576Z,95524.75
2022-07-30T06:42:28.722Z,95522.09
2022-07-30T06:45:19.423Z,95519.88
2022-07-30T06:48:06.442Z,95518.81
2022-07-30T06:50:34.544Z,95511.59
2022-07-30T06:53:04.238Z,95523.25
2022-07-30T06:55:58.267Z,95519.75
2022-07-30T06:58:33.020Z,95518.44
2022-07-30T07:01:21.065Z,95518.81
2022-07-30T07:03:49.135Z,95521.53
2022-07-30T07:06:17.295Z,95510.47
2022-07-30T07:08:46.766Z,95518.94
2022-07-30T07:11:18.825Z,95517.06
2022-07-30T07:13:54.699Z,95521.06
2022-07-30T07:16:32.641Z,95525.19
2022-07-30T07:19:08.225Z,95518.53
2022-07-30T07:21:36.264Z,95520.22
2022-07-30T07:24:08.882Z,95517.88
2022-07-30T07:26:54.380Z,95523.19
2022-07-30T07:29:22.642Z,95509.41
2022-07-30T07:32:06.838Z,95513.00
2022-07-30T07:34:36.982Z,95511.78
2022-07-30T07:37:05.144Z,95511.50
2022-07-30T07:39:34.449Z,95507.16
2022-07-30T07:42:02.635Z,95515.28
2022-07-30T07:44:31.862Z,95509.06
2022-07-30T07:47:00.154Z,95513.72
2022-07-30T07:49:33.480Z,95509.44
2022-07-30T07:52:02.809Z,95504.06
2022-07-30T07:54:30.773Z,95504.56
2022-07-30T07:57:02.326Z,95502.47
2022-07-30T07:59:40.718Z,95498.53
2022-07-30T08:02:24.644Z,95497.16
2022-07-30T08:05:10.591Z,95501.09
2022-07-30T08:08:00.725Z,95481.69
2022-07-30T08:10:41.056Z,95493.97
2022-07-30T08:13:48.145Z,95495.59
2022-07-30T08:16:36.005Z,95497.78
2022-07-30T08:19:35.827Z,95502.59
2022-07-30T08:22:18.305Z,95495.47
2022-07-30T08:24:46.370Z,95491.63
2022-07-30T08:27:14.344Z,95495.28
2022-07-30T08:29:44.969Z,95492.75
2022-07-30T08:32:13.020Z,95495.69
2022-07-30T08:34:42.154Z,95507.34
2022-07-30T08:37:10.292Z,95499.63
2022-07-30T08:39:42.639Z,95494.44
2022-07-30T08:42:11.112Z,95503.59
2022-07-30T08:44:39.902Z,95506.88
2022-07-30T08:47:12.154Z,95500.34
2022-07-30T08:50:19.487Z,95503.41
2022-07-30T08:53:14.283Z,95507.75
2022-07-30T08:55:42.704Z,95500.31
2022-07-30T08:58:23.276Z,95501.78
2022-07-30T09:00:51.428Z,95504.97
2022-07-30T09:03:22.556Z,95503.75
2022-07-30T09:05:51.126Z,95512.84
2022-07-30T09:08:19.987Z,95508.22
2022-07-30T09:10:52.901Z,95509.69
2022-07-30T09:13:26.596Z,95500.34
2022-07-30T09:15:55.854Z,95503.91
2022-07-30T09:18:31.443Z,95503.09
2022-07-30T09:21:00.910Z,95496.72
2022-07-30T09:23:29.509Z,95509.00
2022-07-30T09:26:26.756Z,95505.34
2022-07-30T09:29:17.220Z,95511.81
2022-07-30T09:32:06.489Z,95514.31
2022-07-30T09:34:56.206Z,95524.34
2022-07-30T09:38:04.567Z,95525.81
2022-07-30T09:40:57.579Z,95522.84
2022-07-30T09:43:46.048Z,95522.47
2022-07-30T09:46:21.974Z,95524.28
2022-07-30T09:48:51.690Z,95538.31
2022-07-30T09:51:54.626Z,95531.56
2022-07-30T09:54:26.722Z,95541.56
2022-07-30T09:57:22.627Z,95511.34
2022-07-30T09:59:57.491Z,95521.06
2022-07-30T10:02:33.462Z,95520.69
2022-07-30T10:05:15.472Z,95521.66
2022-07-30T10:07:54.553Z,95510.38
2022-07-30T10:10:25.769Z,95503.34
2022-07-30T10:12:59.082Z,95512.63
2022-07-30T10:15:32.474Z,95517.03
2022-07-30T10:18:02.039Z,95511.13
2022-07-30T10:20:49.780Z,95501.47
2022-07-30T10:23:53.904Z,95492.22
2022-07-30T10:26:40.946Z,95511.78
2022-07-30T10:29:33.826Z,95489.31
2022-07-30T10:32:03.197Z,95503.81
2022-07-30T10:34:34.410Z,95502.56
2022-07-30T10:37:07.478Z,95499.78
2022-07-30T10:39:40.534Z,95497.28
2022-07-30T10:42:25.808Z,95504.44
2022-07-30T10:45:17.437Z,95508.44
2022-07-30T10:47:49.356Z,95496.19
2022-07-30T10:50:22.265Z,95506.28
2022-07-30T10:52:53.488Z,95496.06
2022-07-30T10:55:37.332Z,95490.75
2022-07-30T10:58:09.303Z,95483.50
2022-07-30T11:01:00.666Z,95484.56
2022-07-30T11:03:41.218Z,95488.41
2022-07-30T11:06:27.981Z,95485.56
2022-07-30T11:08:56.943Z,95473.44
2022-07-30T11:12:16.123Z,95483.06
2022-07-30T11:15:06.145Z,95475.50
2022-07-30T11:18:05.108Z,95490.00
2022-07-30T11:20:47.685Z,95474.22
2022-07-30T11:23:40.680Z,95471.88
2022-07-30T11:26:14.190Z,95476.47
2022-07-30T11:28:49.234Z,95478.66
2022-07-30T11:31:30.627Z,95490.31
2022-07-30T11:34:30.972Z,95485.13
2022-07-30T11:37:19.226Z,95473.31
2022-07-30T11:40:11.115Z,95474.06
2022-07-30T11:42:42.150Z,95472.06
2022-07-30T11:45:30.278Z,95481.34
2022-07-30T11:48:01.299Z,95490.03
2022-07-30T11:50:32.201Z,95482.75
2022-07-30T11:53:01.943Z,95489.69
2022-07-30T11:55:32.823Z,95478.66
2022-07-30T11:58:02.461Z,95484.31
2022-07-30T12:00:38.078Z,95471.41
2022-07-30T12:03:13.792Z,95466.38
2022-07-30T12:05:42.140Z,95471.56
2022-07-30T12:08:35.429Z,95468.06
2022-07-30T12:11:01.130Z,95469.66
2022-07-30T12:13:43.927Z,95468.53
2022-07-30T12:16:17.602Z,95465.06
2022-07-30T12:18:46.621Z,95455.25
2022-07-30T12:21:16.175Z,95464.41
2022-07-30T12:23:44.875Z,95462.22
2022-07-30T12:26:22.457Z,95456.38
2022-07-30T12:28:50.977Z,95459.09
2022-07-30T12:31:20.523Z,95468.06
2022-07-30T12:33:48.646Z,95458.72
2022-07-30T12:36:26.581Z,95458.09
2022-07-30T12:38:54.775Z,95455.44
2022-07-30T12:41:23.199Z,95450.50
2022-07-30T12:43:53.169Z,95456.78
2022-07-30T12:46:24.484Z,95463.09
2022-07-30T12:48:54.715Z,95450.06
2022-07-30T12:51:24.749Z,95456.06
2022-07-30T12:53:55.454Z,95456.34
2022-07-30T12:56:24.901Z,95455.97
2022-07-30T12:58:54.034Z,95468.28
2022-07-30T13:01:44.746Z,95462.00
2022-07-30T13:04:14.590Z,95463.66
2022-07-30T13:06:43.550Z,95446.63
2022-07-30T13:09:20.339Z,95462.13
2022-07-30T13:11:51.296Z,95449.03
2022-07-30T13:14:19.378Z,95449.31
2022-07-30T13:16:55.646Z,95458.19
2022-07-30T13:19:23.843Z,95440.19
2022-07-30T13:21:52.023Z,95460.91
2022-07-30T13:24:20.393Z,95460.13
2022-07-30T13:27:01.316Z,95448.94
2022-07-30T13:29:29.381Z,95447.81
2022-07-30T13:31:58.803Z,95446.72
2022-07-30T13:34:26.862Z,95443.56
2022-07-30T13:36:54.901Z,95434.69
2022-07-30T13:39:22.857Z,95436.47
2022-07-30T13:41:50.878Z,95432.22
2022-07-30T13:44:18.887Z,95425.78
2022-07-30T13:46:47.460Z,95423.81
2022-07-30T13:49:16.841Z,95420.69
2022-07-30T13:51:45.299Z,95419.19
2022-07-30T13:54:14.008Z,95404.44
2022-07-30T13:56:42.118Z,95414.31
2022-07-30T13:59:10.948Z,95414.97
2022-07-30T14:01:39.381Z,95410.25
2022-07-30T14:04:08.422Z,95410.66
2022-07-30T14:06:37.819Z,95416.94
2022-07-30T14:09:06.124Z,95422.09
2022-07-30T14:11:34.134Z,95407.59
2022-07-30T14:14:02.104Z,95414.31
2022-07-30T14:16:44.709Z,95414.19
2022-07-30T14:19:23.550Z,95408.25
2022-07-30T14:21:54.320Z,95416.41
2022-07-30T14:24:23.463Z,95411.22
2022-07-30T14:26:57.339Z,95419.97
2022-07-30T14:29:26.505Z,95401.25
2022-07-30T14:31:55.073Z,95428.75
2022-07-30T14:34:23.077Z,95402.19
2022-07-30T14:36:51.141Z,95402.72
2022-07-30T14:39:20.958Z,95410.44
2022-07-30T14:41:54.062Z,95406.31
2022-07-30T14:44:24.423Z,95418.66
2022-07-30T14:46:53.020Z,95407.00
2022-07-30T14:49:21.697Z,95406.31
2022-07-30T14:51:51.150Z,95400.22
2022-07-30T14:54:20.873Z,95392.06
2022-07-30T14:56:49.248Z,95397.81
2022-07-30T14:59:18.069Z,95399.03
2022-07-30T15:01:48.214Z,95401.63
2022-07-30T15:04:16.890Z,95402.03
2022-07-30T15:06:45.228Z,95401.13
2022-07-30T15:09:13.846Z,95388.59
2022-07-30T15:12:07.608Z,95388.25
2022-07-30T15:14:31.706Z,95388.84
2022-07-30T15:17:04.269Z,95397.56
2022-07-30T15:19:33.287Z,95392.41
2022-07-30T15:22:03.530Z,95395.31
2022-07-30T15:24:32.291Z,95391.06
2022-07-30T15:27:02.053Z,95391.50
2022-07-30T15:29:31.045Z,95392.41
2022-07-30T15:32:01.211Z,95384.34
2022-07-30T15:34:34.655Z,95392.41
2022-07-30T15:37:03.563Z,95385.22
2022-07-30T15:39:34.399Z,95378.50
2022-07-30T15:42:06.572Z,95386.88
2022-07-30T15:44:35.346Z,95386.09
2022-07-30T15:47:03.537Z,95381.84
2022-07-30T15:49:32.519Z,95390.06
2022-07-30T15:52:01.736Z,95383.22
2022-07-30T15:54:30.370Z,95384.03
2022-07-30T15:57:01.052Z,95379.22
2022-07-30T15:59:31.953Z,95379.34
2022-07-30T16:02:00.740Z,95375.56
2022-07-30T16:04:31.981Z,95375.56
2022-07-30T16:07:00.851Z,95387.66
2022-07-30T16:09:28.942Z,95376.09
2022-07-30T16:11:57.109Z,95374.44
2022-07-30T16:14:26.359Z,95375.78
2022-07-30T16:16:56.201Z,95373.09
2022-07-30T16:19:24.533Z,95373.75
2022-07-30T16:21:53.264Z,95371.16
2022-07-30T16:24:21.724Z,95368.81
2022-07-30T16:26:50.733Z,95376.91
2022-07-30T16:29:19.028Z,95379.22
2022-07-30T16:31:47.432Z,95363.41
2022-07-30T16:34:17.187Z,95365.75
2022-07-30T16:36:54.689Z,95368.97
2022-07-30T16:39:23.221Z,95362.28
2022-07-30T16:41:51.293Z,95365.78
2022-07-30T16:44:19.223Z,95360.63
2022-07-30T16:46:48.116Z,95368.63
2022-07-30T16:49:17.782Z,95372.53
2022-07-30T16:51:45.794Z,95365.06
2022-07-30T16:54:13.839Z,95362.22
2022-07-30T16:56:42.581Z,95364.38
2022-07-30T16:59:13.776Z,95362.72
2022-07-30T17:01:42.095Z,95365.59
2022-07-30T17:04:10.082Z,95356.81
2022-07-30T17:06:40.139Z,95364.66
2022-07-30T17:09:08.377Z,95368.81
2022-07-30T17:11:47.337Z,95374.69
2022-07-30T17:14:22.216Z,95362.44
2022-07-30T17:16:50.553Z,95373.84
2022-07-30T17:19:18.550Z,95363.41
2022-07-30T17:21:47.904Z,95361.34
2022-07-30T17:24:15.948Z,95363.16
2022-07-30T17:26:44.861Z,95360.03
2022-07-30T17:29:15.269Z,95368.31
2022-07-30T17:31:44.577Z,95367.88
2022-07-30T17:34:14.300Z,95370.81
2022-07-30T17:36:44.353Z,95367.00
2022-07-30T17:40:18.701Z,95379.94
2022-07-30T17:42:10.445Z,95372.38
2022-07-30T17:44:39.322Z,95378.97
2022-07-30T17:47:12.360Z,95382.00
2022-07-30T17:49:42.748Z,95385.78
2022-07-30T17:52:10.676Z,95380.56
2022-07-30T17:54:40.476Z,95386.34
2022-07-30T17:57:08.492Z,95384.69
2022-07-30T17:59:36.511Z,95375.44
2022-07-30T18:02:05.209Z,95372.63
2022-07-30T18:04:34.240Z,95385.03
2022-07-30T18:07:02.280Z,95384.88
2022-07-30T18:09:38.086Z,95386.91
2022-07-30T18:12:09.958Z,95390.75
2022-07-30T18:14:38.682Z,95391.28
2022-07-30T18:17:09.087Z,95383.22
2022-07-30T18:19:39.233Z,95393.63
2022-07-30T18:22:09.028Z,95392.19
2022-07-30T18:24:40.525Z,95391.28
2022-07-30T18:27:13.359Z,95386.38
2022-07-30T18:29:41.365Z,95396.00
2022-07-30T18:32:09.579Z,95389.84
2022-07-30T18:34:37.560Z,95393.19
2022-07-30T18:37:05.705Z,95391.38
2022-07-30T18:39:33.664Z,95398.41
2022-07-30T18:42:02.420Z,95402.38
2022-07-30T18:44:32.423Z,95400.69
2022-07-30T18:47:00.417Z,95414.63
2022-07-30T18:49:37.564Z,95411.59
2022-07-30T18:52:07.846Z,95417.94
2022-07-30T18:54:36.881Z,95410.53
2022-07-30T18:57:05.368Z,95413.75
2022-07-30T18:59:35.003Z,95410.22
2022-07-30T19:02:04.806Z,95413.53
2022-07-30T19:04:33.079Z,95420.84
2022-07-30T19:07:01.027Z,95417.69
2022-07-30T19:09:28.994Z,95425.63
2022-07-30T19:11:56.959Z,95425.94
2022-07-30T19:14:24.953Z,95428.53
2022-07-30T19:16:54.476Z,95425.84
2022-07-30T19:19:27.539Z,95434.22
2022-07-30T19:21:55.527Z,95431.03
2022-07-30T19:24:23.846Z,95433.88
2022-07-30T19:26:56.130Z,95444.16
2022-07-30T19:29:24.151Z,95442.09
2022-07-30T19:31:52.165Z,95443.34
2022-07-30T19:34:21.519Z,95444.00
2022-07-30T19:36:49.468Z,95443.34
2022-07-30T19:39:21.590Z,95446.50
2022-07-30T19:41:50.770Z,95440.66
2022-07-30T19:44:19.671Z,95444.75
2022-07-30T19:46:48.690Z,95443.66
2022-07-30T19:49:19.890Z,95449.28
2022-07-30T19:52:10.477Z,95451.94
2022-07-30T19:54:39.530Z,95451.78
2022-07-30T19:57:07.567Z,95458.22
2022-07-30T19:59:45.229Z,95452.72
2022-07-30T20:02:23.618Z,95457.44
2022-07-30T20:04:51.703Z,95458.84
2022-07-30T20:07:21.116Z,95458.69
2022-07-30T20:09:49.224Z,95461.47
2022-07-30T20:12:17.567Z,95459.59
2022-07-30T20:14:46.008Z,95472.97
2022-07-30T20:17:14.505Z,95477.13
2022-07-30T20:19:47.967Z,95473.25
2022-07-30T20:22:17.362Z,95469.16
2022-07-30T20:24:48.998Z,95475.13
2022-07-30T20:27:35.343Z,95471.34
2022-07-30T20:30:06.211Z,95468.19
2022-07-30T20:32:35.341Z,95465.75
2022-07-30T20:35:04.688Z,95474.66
2022-07-30T20:37:33.247Z,95471.50
2022-07-30T20:40:11.427Z,95469.81
2022-07-30T20:42:42.676Z,95474.66
2022-07-30T20:45:12.332Z,95478.44
2022-07-30T20:47:41.339Z,95475.66
2022-07-30T20:50:10.883Z,95485.44
2022-07-30T20:52:40.520Z,95482.94
2022-07-30T20:55:14.366Z,95483.34
2022-07-30T20:58:00.320Z,95485.53
2022-07-30T21:00:32.558Z,95488.78
2022-07-30T21:03:03.390Z,95496.22
2022-07-30T21:05:31.721Z,95494.75
2022-07-30T21:08:00.809Z,95490.13
2022-07-30T21:10:30.296Z,95493.84
2022-07-30T21:13:03.718Z,95505.66
2022-07-30T21:15:36.214Z,95497.03
2022-07-30T21:18:13.983Z,95499.22
2022-07-30T21:20:41.890Z,95507.53
2022-07-30T21:23:20.785Z,95508.06
2022-07-30T21:26:01.971Z,95508.75
2022-07-30T21:28:35.124Z,95510.50
2022-07-30T21:31:04.080Z,95509.91
2022-07-30T21:33:35.848Z,95509.16
2022-07-30T21:36:03.893Z,95509.75
2022-07-30T21:38:34.496Z,95509.16
2022-07-30T21:41:04.137Z,95507.34
2022-07-30T21:43:39.056Z,95511.91
2022-07-30T21:46:07.218Z,95505.16
2022-07-30T21:48:39.662Z,95505.94
2022-07-30T21:51:09.539Z,95516.03
2022-07-30T21:53:45.135Z,95515.63
2022-07-30T21:56:16.751Z,95518.00
2022-07-30T21:58:45.478Z,95518.78
2022-07-30T22:01:21.700Z,95517.41
2022-07-30T22:04:01.653Z,95518.38
2022-07-30T22:06:35.302Z,95521.84
2022-07-30T22:09:08.555Z,95515.41
2022-07-30T22:11:52.964Z,95511.75
2022-07-30T22:14:20.979Z,95521.34
2022-07-30T22:16:49.000Z,95523.53
2022-07-30T22:19:17.314Z,95524.63
2022-07-30T22:21:46.705Z,95524.13
2022-07-30T22:24:33.627Z,95532.25
2022-07-30T22:27:10.713Z,95525.31
2022-07-30T22:29:51.121Z,95518.63
2022-07-30T22:32:23.964Z,95522.88
2022-07-30T22:34:52.033Z,95530.09
2022-07-30T22:37:21.522Z,95519.22
2022-07-30T22:39:50.164Z,95525.16
2022-07-30T22:42:24.583Z,95525.66
2022-07-30T22:44:55.510Z,95526.25
2022-07-30T22:47:51.259Z,95526.34
2022-07-30T22:50:15.026Z,95521.00
2022-07-30T22:52:53.518Z,95521.09
2022-07-30T22:55:28.301Z,95514.09
2022-07-30T22:57:59.105Z,95517.25
2022-07-30T23:00:28.584Z,95513.47
2022-07-30T23:02:57.756Z,95516.25
2022-07-30T23:05:26.251Z,95516.44
2022-07-30T23:07:54.400Z,95516.34
2022-07-30T23:10:24.916Z,95520.03
2022-07-30T23:12:56.342Z,95512.28
2022-07-30T23:15:25.967Z,95514.69
2022-07-30T23:17:54.238Z,95513.88
2022-07-30T23:20:22.834Z,95516.25
2022-07-30T23:22:51.184Z,95511.47
2022-07-30T23:25:19.698Z,95518.00
2022-07-30T23:27:48.021Z,95512.84
2022-07-30T23:30:16.174Z,95508.88
2022-07-30T23:32:45.702Z,95511.81
2022-07-30T23:35:13.637Z,95515.00
2022-07-30T23:37:48.997Z,95518.75
2022-07-30T23:40:18.442Z,95514.78
2022-07-30T23:42:46.727Z,95514.16
2022-07-30T23:45:14.907Z,95513.75
2022-07-30T23:47:55.961Z,95516.97
2022-07-30T23:50:32.763Z,95521.81
2022-07-30T23:53:01.402Z,95514.78
2022-07-30T23:55:29.872Z,95515.22
2022-07-30T23:57:58.133Z,95517.91
